sensor_id;sensor_type;location;lat;lon;timestamp;temperature;humidity
8862;DHT22;4799;50.996;4.754;2022-08-19T00:01:30;18.90;99.90
8862;DHT22;4799;50.996;4.754;2022-08-19T00:03:58;18.90;99.90
8862;DHT22;4799;50.996;4.754;2022-08-19T00:06:24;18.90;99.90
8862;DHT22;4799;50.996;4.754;2022-08-19T00:08:50;18.80;99.90
8862;DHT22;4799;50.996;4.754;2022-08-19T00:11:17;18.80;99.90
8862;DHT22;4799;50.996;4.754;2022-08-19T00:13:43;18.80;99.90
8862;DHT22;4799;50.996;4.754;2022-08-19T00:16:09;18.80;99.90
8862;DHT22;4799;50.996;4.754;2022-08-19T00:18:35;18.80;99.90
8862;DHT22;4799;50.996;4.754;2022-08-19T00:21:00;18.80;99.90
8862;DHT22;4799;50.996;4.754;2022-08-19T00:23:27;18.90;99.90
8862;DHT22;4799;50.996;4.754;2022-08-19T00:25:53;18.90;99.90
8862;DHT22;4799;50.996;4.754;2022-08-19T00:28:19;18.90;99.90
8862;DHT22;4799;50.996;4.754;2022-08-19T00:30:46;19.00;99.90
8862;DHT22;4799;50.996;4.754;2022-08-19T00:33:12;19.00;99.90
8862;DHT22;4799;50.996;4.754;2022-08-19T00:35:39;19.10;99.90
8862;DHT22;4799;50.996;4.754;2022-08-19T00:38:05;19.10;99.90
8862;DHT22;4799;50.996;4.754;2022-08-19T00:40:32;19.10;99.90
8862;DHT22;4799;50.996;4.754;2022-08-19T00:42:58;19.10;99.90
8862;DHT22;4799;50.996;4.754;2022-08-19T00:45:26;19.10;99.90
8862;DHT22;4799;50.996;4.754;2022-08-19T00:47:53;19.00;99.90
8862;DHT22;4799;50.996;4.754;2022-08-19T00:50:20;19.00;99.90
8862;DHT22;4799;50.996;4.754;2022-08-19T00:52:49;18.90;99.90
8862;DHT22;4799;50.996;4.754;2022-08-19T00:55:19;18.90;99.90
8862;DHT22;4799;50.996;4.754;2022-08-19T00:57:50;18.90;99.90
8862;DHT22;4799;50.996;4.754;2022-08-19T01:00:18;18.90;99.90
8862;DHT22;4799;50.996;4.754;2022-08-19T01:02:44;18.80;99.90
8862;DHT22;4799;50.996;4.754;2022-08-19T01:05:14;18.80;99.90
8862;DHT22;4799;50.996;4.754;2022-08-19T01:07:41;18.80;99.90
8862;DHT22;4799;50.996;4.754;2022-08-19T01:10:11;18.80;99.90
8862;DHT22;4799;50.996;4.754;2022-08-19T01:12:38;18.70;99.90
8862;DHT22;4799;50.996;4.754;2022-08-19T01:15:09;18.70;99.90
8862;DHT22;4799;50.996;4.754;2022-08-19T01:17:38;18.70;99.90
8862;DHT22;4799;50.996;4.754;2022-08-19T01:20:06;18.70;99.90
8862;DHT22;4799;50.996;4.754;2022-08-19T01:25:13;18.60;99.90
8862;DHT22;4799;50.996;4.754;2022-08-19T01:27:42;18.60;99.90
8862;DHT22;4799;50.996;4.754;2022-08-19T01:30:11;18.60;99.90
8862;DHT22;4799;50.996;4.754;2022-08-19T01:32:37;18.60;99.90
8862;DHT22;4799;50.996;4.754;2022-08-19T01:35:04;18.50;99.90
8862;DHT22;4799;50.996;4.754;2022-08-19T01:37:42;18.50;99.90
8862;DHT22;4799;50.996;4.754;2022-08-19T01:40:09;18.50;99.90
8862;DHT22;4799;50.996;4.754;2022-08-19T01:42:35;18.50;99.90
8862;DHT22;4799;50.996;4.754;2022-08-19T01:45:01;18.50;99.90
8862;DHT22;4799;50.996;4.754;2022-08-19T01:47:26;18.50;99.90
8862;DHT22;4799;50.996;4.754;2022-08-19T01:49:53;18.40;99.90
8862;DHT22;4799;50.996;4.754;2022-08-19T01:52:19;18.40;99.90
8862;DHT22;4799;50.996;4.754;2022-08-19T01:54:44;18.40;99.90
8862;DHT22;4799;50.996;4.754;2022-08-19T01:57:12;18.40;99.90
8862;DHT22;4799;50.996;4.754;2022-08-19T01:59:40;18.30;99.90
8862;DHT22;4799;50.996;4.754;2022-08-19T02:02:08;18.30;99.90
8862;DHT22;4799;50.996;4.754;2022-08-19T02:04:34;18.30;99.90
8862;DHT22;4799;50.996;4.754;2022-08-19T02:07:07;18.30;99.90
8862;DHT22;4799;50.996;4.754;2022-08-19T02:09:33;18.30;99.90
8862;DHT22;4799;50.996;4.754;2022-08-19T02:11:59;18.20;99.90
8862;DHT22;4799;50.996;4.754;2022-08-19T02:14:25;18.20;99.90
8862;DHT22;4799;50.996;4.754;2022-08-19T02:16:51;18.20;99.90
8862;DHT22;4799;50.996;4.754;2022-08-19T02:19:16;18.20;99.90
8862;DHT22;4799;50.996;4.754;2022-08-19T02:21:42;18.20;99.90
8862;DHT22;4799;50.996;4.754;2022-08-19T02:24:09;18.10;99.90
8862;DHT22;4799;50.996;4.754;2022-08-19T02:26:35;18.10;99.90
8862;DHT22;4799;50.996;4.754;2022-08-19T02:29:01;18.10;99.90
8862;DHT22;4799;50.996;4.754;2022-08-19T02:31:27;18.10;99.90
8862;DHT22;4799;50.996;4.754;2022-08-19T02:33:54;18.00;99.90
8862;DHT22;4799;50.996;4.754;2022-08-19T02:36:21;18.00;99.90
8862;DHT22;4799;50.996;4.754;2022-08-19T02:38:47;17.90;99.90
8862;DHT22;4799;50.996;4.754;2022-08-19T02:41:21;17.90;99.90
8862;DHT22;4799;50.996;4.754;2022-08-19T02:43:47;17.90;99.90
8862;DHT22;4799;50.996;4.754;2022-08-19T02:46:23;17.80;99.90
8862;DHT22;4799;50.996;4.754;2022-08-19T02:48:51;17.80;99.90
8862;DHT22;4799;50.996;4.754;2022-08-19T02:51:20;17.80;99.90
8862;DHT22;4799;50.996;4.754;2022-08-19T02:53:46;17.70;99.90
8862;DHT22;4799;50.996;4.754;2022-08-19T02:56:12;17.70;99.90
8862;DHT22;4799;50.996;4.754;2022-08-19T02:58:39;17.60;99.90
8862;DHT22;4799;50.996;4.754;2022-08-19T03:01:05;17.60;99.90
8862;DHT22;4799;50.996;4.754;2022-08-19T03:03:31;17.60;99.90
8862;DHT22;4799;50.996;4.754;2022-08-19T03:06:09;17.50;99.90
8862;DHT22;4799;50.996;4.754;2022-08-19T03:08:36;17.50;99.90
8862;DHT22;4799;50.996;4.754;2022-08-19T03:11:03;17.50;99.90
8862;DHT22;4799;50.996;4.754;2022-08-19T03:13:29;17.40;99.90
8862;DHT22;4799;50.996;4.754;2022-08-19T03:15:55;17.40;99.90
8862;DHT22;4799;50.996;4.754;2022-08-19T03:18:21;17.40;99.90
8862;DHT22;4799;50.996;4.754;2022-08-19T03:20:48;17.40;99.90
8862;DHT22;4799;50.996;4.754;2022-08-19T03:23:16;17.30;99.90
8862;DHT22;4799;50.996;4.754;2022-08-19T03:25:45;17.30;99.90
8862;DHT22;4799;50.996;4.754;2022-08-19T03:28:12;17.30;99.90
8862;DHT22;4799;50.996;4.754;2022-08-19T03:30:40;17.30;99.90
8862;DHT22;4799;50.996;4.754;2022-08-19T03:33:10;17.30;99.90
8862;DHT22;4799;50.996;4.754;2022-08-19T03:35:37;17.30;99.90
8862;DHT22;4799;50.996;4.754;2022-08-19T03:38:04;17.20;99.90
8862;DHT22;4799;50.996;4.754;2022-08-19T03:40:32;17.30;99.90
8862;DHT22;4799;50.996;4.754;2022-08-19T03:42:58;17.20;99.90
8862;DHT22;4799;50.996;4.754;2022-08-19T03:45:24;17.20;99.90
8862;DHT22;4799;50.996;4.754;2022-08-19T03:47:49;17.10;99.90
8862;DHT22;4799;50.996;4.754;2022-08-19T03:50:16;17.10;99.90
8862;DHT22;4799;50.996;4.754;2022-08-19T03:52:42;17.10;99.90
8862;DHT22;4799;50.996;4.754;2022-08-19T03:55:11;17.10;99.90
8862;DHT22;4799;50.996;4.754;2022-08-19T03:57:36;17.10;99.90
8862;DHT22;4799;50.996;4.754;2022-08-19T04:00:03;17.00;99.90
8862;DHT22;4799;50.996;4.754;2022-08-19T04:02:34;17.00;99.90
8862;DHT22;4799;50.996;4.754;2022-08-19T04:05:00;17.00;99.90
8862;DHT22;4799;50.996;4.754;2022-08-19T04:07:26;17.00;99.90
8862;DHT22;4799;50.996;4.754;2022-08-19T04:09:52;17.00;99.90
8862;DHT22;4799;50.996;4.754;2022-08-19T04:12:18;16.90;99.90
8862;DHT22;4799;50.996;4.754;2022-08-19T04:14:45;16.90;99.90
8862;DHT22;4799;50.996;4.754;2022-08-19T04:17:11;16.90;99.90
8862;DHT22;4799;50.996;4.754;2022-08-19T04:19:38;16.90;99.90
8862;DHT22;4799;50.996;4.754;2022-08-19T04:22:04;16.80;99.90
8862;DHT22;4799;50.996;4.754;2022-08-19T04:24:31;16.80;99.90
8862;DHT22;4799;50.996;4.754;2022-08-19T04:26:58;16.80;99.90
8862;DHT22;4799;50.996;4.754;2022-08-19T04:29:25;16.80;99.90
8862;DHT22;4799;50.996;4.754;2022-08-19T04:31:53;16.80;99.90
8862;DHT22;4799;50.996;4.754;2022-08-19T04:34:21;16.70;99.90
8862;DHT22;4799;50.996;4.754;2022-08-19T04:36:48;16.70;99.90
8862;DHT22;4799;50.996;4.754;2022-08-19T04:39:21;16.70;99.90
8862;DHT22;4799;50.996;4.754;2022-08-19T04:41:47;16.70;99.90
8862;DHT22;4799;50.996;4.754;2022-08-19T04:44:33;16.60;99.90
8862;DHT22;4799;50.996;4.754;2022-08-19T04:46:59;16.60;99.90
8862;DHT22;4799;50.996;4.754;2022-08-19T04:49:25;16.60;99.90
8862;DHT22;4799;50.996;4.754;2022-08-19T04:51:52;16.70;99.90
8862;DHT22;4799;50.996;4.754;2022-08-19T04:54:21;16.60;99.90
8862;DHT22;4799;50.996;4.754;2022-08-19T04:56:49;16.60;99.90
8862;DHT22;4799;50.996;4.754;2022-08-19T04:59:16;16.60;99.90
8862;DHT22;4799;50.996;4.754;2022-08-19T05:01:43;16.70;99.90
8862;DHT22;4799;50.996;4.754;2022-08-19T05:04:09;16.70;99.90
8862;DHT22;4799;50.996;4.754;2022-08-19T05:06:35;16.70;99.90
8862;DHT22;4799;50.996;4.754;2022-08-19T05:09:03;16.70;99.90
8862;DHT22;4799;50.996;4.754;2022-08-19T05:11:32;16.70;99.90
8862;DHT22;4799;50.996;4.754;2022-08-19T05:13:59;16.70;99.90
8862;DHT22;4799;50.996;4.754;2022-08-19T05:16:27;16.80;99.90
8862;DHT22;4799;50.996;4.754;2022-08-19T05:18:53;16.80;99.90
8862;DHT22;4799;50.996;4.754;2022-08-19T05:21:39;16.80;99.90
8862;DHT22;4799;50.996;4.754;2022-08-19T05:24:24;16.90;99.90
8862;DHT22;4799;50.996;4.754;2022-08-19T05:26:51;17.00;99.90
8862;DHT22;4799;50.996;4.754;2022-08-19T05:29:20;17.00;99.90
8862;DHT22;4799;50.996;4.754;2022-08-19T05:31:47;17.10;99.90
8862;DHT22;4799;50.996;4.754;2022-08-19T05:34:18;17.10;99.90
8862;DHT22;4799;50.996;4.754;2022-08-19T05:36:45;17.20;99.90
8862;DHT22;4799;50.996;4.754;2022-08-19T05:39:14;17.20;99.90
8862;DHT22;4799;50.996;4.754;2022-08-19T05:41:49;17.20;99.90
8862;DHT22;4799;50.996;4.754;2022-08-19T05:44:16;17.30;99.90
8862;DHT22;4799;50.996;4.754;2022-08-19T05:46:46;17.30;99.90
8862;DHT22;4799;50.996;4.754;2022-08-19T05:49:18;17.40;99.90
8862;DHT22;4799;50.996;4.754;2022-08-19T05:51:44;17.40;99.90
8862;DHT22;4799;50.996;4.754;2022-08-19T05:54:10;17.50;99.90
8862;DHT22;4799;50.996;4.754;2022-08-19T05:56:40;17.50;99.90
8862;DHT22;4799;50.996;4.754;2022-08-19T05:59:08;17.60;99.90
8862;DHT22;4799;50.996;4.754;2022-08-19T06:01:37;17.70;99.90
8862;DHT22;4799;50.996;4.754;2022-08-19T06:04:03;17.90;99.90
8862;DHT22;4799;50.996;4.754;2022-08-19T06:06:29;18.00;99.90
8862;DHT22;4799;50.996;4.754;2022-08-19T06:08:55;18.10;99.90
8862;DHT22;4799;50.996;4.754;2022-08-19T06:11:32;18.20;99.90
8862;DHT22;4799;50.996;4.754;2022-08-19T06:14:02;18.30;99.90
8862;DHT22;4799;50.996;4.754;2022-08-19T06:16:28;18.40;99.90
8862;DHT22;4799;50.996;4.754;2022-08-19T06:19:03;18.50;99.90
8862;DHT22;4799;50.996;4.754;2022-08-19T06:21:29;18.70;99.90
8862;DHT22;4799;50.996;4.754;2022-08-19T06:23:56;18.80;99.90
8862;DHT22;4799;50.996;4.754;2022-08-19T06:26:23;18.90;99.90
8862;DHT22;4799;50.996;4.754;2022-08-19T06:28:49;19.10;99.90
8862;DHT22;4799;50.996;4.754;2022-08-19T06:31:22;19.20;99.90
8862;DHT22;4799;50.996;4.754;2022-08-19T06:33:48;19.30;99.90
8862;DHT22;4799;50.996;4.754;2022-08-19T06:36:22;19.40;99.90
8862;DHT22;4799;50.996;4.754;2022-08-19T06:38:51;19.60;99.90
8862;DHT22;4799;50.996;4.754;2022-08-19T06:41:16;19.60;99.90
8862;DHT22;4799;50.996;4.754;2022-08-19T06:43:42;19.70;99.90
8862;DHT22;4799;50.996;4.754;2022-08-19T06:46:13;19.80;99.90
8862;DHT22;4799;50.996;4.754;2022-08-19T06:48:39;19.90;99.90
8862;DHT22;4799;50.996;4.754;2022-08-19T06:51:05;20.10;99.90
8862;DHT22;4799;50.996;4.754;2022-08-19T06:53:32;20.20;99.90
8862;DHT22;4799;50.996;4.754;2022-08-19T06:55:58;20.20;99.90
8862;DHT22;4799;50.996;4.754;2022-08-19T06:58:25;20.40;99.90
8862;DHT22;4799;50.996;4.754;2022-08-19T07:00:51;20.40;99.90
8862;DHT22;4799;50.996;4.754;2022-08-19T07:03:17;20.50;99.90
8862;DHT22;4799;50.996;4.754;2022-08-19T07:05:43;20.60;99.90
8862;DHT22;4799;50.996;4.754;2022-08-19T07:08:09;20.80;99.90
8862;DHT22;4799;50.996;4.754;2022-08-19T07:10:35;20.90;99.90
8862;DHT22;4799;50.996;4.754;2022-08-19T07:13:02;21.10;99.90
8862;DHT22;4799;50.996;4.754;2022-08-19T07:15:29;21.20;99.90
8862;DHT22;4799;50.996;4.754;2022-08-19T07:17:55;21.40;99.90
8862;DHT22;4799;50.996;4.754;2022-08-19T07:20:21;21.50;99.90
8862;DHT22;4799;50.996;4.754;2022-08-19T07:22:46;21.50;99.90
8862;DHT22;4799;50.996;4.754;2022-08-19T07:25:13;21.50;99.90
8862;DHT22;4799;50.996;4.754;2022-08-19T07:27:39;21.50;99.90
8862;DHT22;4799;50.996;4.754;2022-08-19T07:30:07;21.40;99.90
8862;DHT22;4799;50.996;4.754;2022-08-19T07:32:34;21.40;99.90
8862;DHT22;4799;50.996;4.754;2022-08-19T07:34:59;21.40;99.90
8862;DHT22;4799;50.996;4.754;2022-08-19T07:37:26;21.40;99.90
8862;DHT22;4799;50.996;4.754;2022-08-19T07:39:54;21.50;99.90
8862;DHT22;4799;50.996;4.754;2022-08-19T07:42:20;21.60;99.90
8862;DHT22;4799;50.996;4.754;2022-08-19T07:44:46;21.80;99.90
8862;DHT22;4799;50.996;4.754;2022-08-19T07:47:12;22.10;99.90
8862;DHT22;4799;50.996;4.754;2022-08-19T07:49:40;22.20;99.90
8862;DHT22;4799;50.996;4.754;2022-08-19T07:52:09;22.20;99.90
8862;DHT22;4799;50.996;4.754;2022-08-19T07:54:37;22.10;99.90
8862;DHT22;4799;50.996;4.754;2022-08-19T07:57:03;22.20;99.90
8862;DHT22;4799;50.996;4.754;2022-08-19T07:59:29;22.10;99.90
8862;DHT22;4799;50.996;4.754;2022-08-19T08:01:56;21.90;99.90
8862;DHT22;4799;50.996;4.754;2022-08-19T08:04:22;21.70;99.90
8862;DHT22;4799;50.996;4.754;2022-08-19T08:07:07;21.70;99.90
8862;DHT22;4799;50.996;4.754;2022-08-19T08:09:52;21.70;99.90
8862;DHT22;4799;50.996;4.754;2022-08-19T08:12:20;21.90;99.90
8862;DHT22;4799;50.996;4.754;2022-08-19T08:14:51;22.00;99.90
8862;DHT22;4799;50.996;4.754;2022-08-19T08:17:19;22.20;99.90
8862;DHT22;4799;50.996;4.754;2022-08-19T08:19:46;22.40;99.90
8862;DHT22;4799;50.996;4.754;2022-08-19T08:22:15;22.50;99.90
8862;DHT22;4799;50.996;4.754;2022-08-19T08:25:08;22.40;99.90
8862;DHT22;4799;50.996;4.754;2022-08-19T08:27:38;22.40;99.90
8862;DHT22;4799;50.996;4.754;2022-08-19T08:30:09;22.40;99.90
8862;DHT22;4799;50.996;4.754;2022-08-19T08:32:39;22.50;99.90
8862;DHT22;4799;50.996;4.754;2022-08-19T08:35:08;22.60;99.90
8862;DHT22;4799;50.996;4.754;2022-08-19T08:37:35;22.80;99.90
8862;DHT22;4799;50.996;4.754;2022-08-19T08:43:08;23.40;99.90
8862;DHT22;4799;50.996;4.754;2022-08-19T08:45:38;23.60;99.90
8862;DHT22;4799;50.996;4.754;2022-08-19T08:51:20;23.90;99.90
8862;DHT22;4799;50.996;4.754;2022-08-19T08:53:51;24.10;99.90
8862;DHT22;4799;50.996;4.754;2022-08-19T08:56:17;24.10;99.90
8862;DHT22;4799;50.996;4.754;2022-08-19T09:01:29;23.90;99.90
8862;DHT22;4799;50.996;4.754;2022-08-19T09:03:55;24.10;99.90
8862;DHT22;4799;50.996;4.754;2022-08-19T09:06:29;24.30;99.90
8862;DHT22;4799;50.996;4.754;2022-08-19T09:12:01;24.60;99.90
8862;DHT22;4799;50.996;4.754;2022-08-19T09:17:08;24.80;99.90
8862;DHT22;4799;50.996;4.754;2022-08-19T09:19:36;24.80;99.90
8862;DHT22;4799;50.996;4.754;2022-08-19T09:22:11;24.90;99.90
8862;DHT22;4799;50.996;4.754;2022-08-19T09:24:37;25.00;99.90
8862;DHT22;4799;50.996;4.754;2022-08-19T09:27:03;25.10;99.90
8862;DHT22;4799;50.996;4.754;2022-08-19T09:29:29;25.20;99.90
8862;DHT22;4799;50.996;4.754;2022-08-19T09:31:56;25.40;99.90
8862;DHT22;4799;50.996;4.754;2022-08-19T09:34:21;25.60;99.90
8862;DHT22;4799;50.996;4.754;2022-08-19T09:36:48;25.70;99.90
8862;DHT22;4799;50.996;4.754;2022-08-19T09:39:14;25.90;99.90
8862;DHT22;4799;50.996;4.754;2022-08-19T09:41:40;25.90;99.90
8862;DHT22;4799;50.996;4.754;2022-08-19T09:44:06;25.80;99.90
8862;DHT22;4799;50.996;4.754;2022-08-19T09:46:31;25.70;99.90
8862;DHT22;4799;50.996;4.754;2022-08-19T09:48:59;25.60;99.90
8862;DHT22;4799;50.996;4.754;2022-08-19T09:51:26;25.60;99.90
8862;DHT22;4799;50.996;4.754;2022-08-19T09:53:54;25.60;99.90
8862;DHT22;4799;50.996;4.754;2022-08-19T09:56:21;25.70;99.90
8862;DHT22;4799;50.996;4.754;2022-08-19T09:58:47;25.70;99.90
8862;DHT22;4799;50.996;4.754;2022-08-19T10:01:19;25.80;99.90
8862;DHT22;4799;50.996;4.754;2022-08-19T10:03:48;25.80;99.90
8862;DHT22;4799;50.996;4.754;2022-08-19T10:06:15;25.80;99.90
8862;DHT22;4799;50.996;4.754;2022-08-19T10:08:41;25.80;99.90
8862;DHT22;4799;50.996;4.754;2022-08-19T10:11:09;25.80;99.90
8862;DHT22;4799;50.996;4.754;2022-08-19T10:13:35;25.80;99.90
8862;DHT22;4799;50.996;4.754;2022-08-19T10:16:07;25.80;99.90
8862;DHT22;4799;50.996;4.754;2022-08-19T10:18:35;25.80;99.90
8862;DHT22;4799;50.996;4.754;2022-08-19T10:21:07;25.80;99.90
8862;DHT22;4799;50.996;4.754;2022-08-19T10:23:35;25.90;99.90
8862;DHT22;4799;50.996;4.754;2022-08-19T10:26:01;25.90;99.90
8862;DHT22;4799;50.996;4.754;2022-08-19T10:28:28;25.90;99.90
8862;DHT22;4799;50.996;4.754;2022-08-19T10:30:54;26.00;99.90
8862;DHT22;4799;50.996;4.754;2022-08-19T10:33:20;26.10;99.90
8862;DHT22;4799;50.996;4.754;2022-08-19T10:35:45;26.20;99.90
8862;DHT22;4799;50.996;4.754;2022-08-19T10:38:12;26.30;99.90
8862;DHT22;4799;50.996;4.754;2022-08-19T10:40:38;26.40;99.90
8862;DHT22;4799;50.996;4.754;2022-08-19T10:43:04;26.60;99.90
8862;DHT22;4799;50.996;4.754;2022-08-19T10:45:30;26.70;99.90
8862;DHT22;4799;50.996;4.754;2022-08-19T10:47:56;26.80;99.90
8862;DHT22;4799;50.996;4.754;2022-08-19T10:50:21;27.10;99.90
8862;DHT22;4799;50.996;4.754;2022-08-19T10:53:07;27.30;99.90
8862;DHT22;4799;50.996;4.754;2022-08-19T10:55:36;27.40;99.90
8862;DHT22;4799;50.996;4.754;2022-08-19T10:58:22;27.50;99.90
8862;DHT22;4799;50.996;4.754;2022-08-19T11:00:57;27.70;99.20
8862;DHT22;4799;50.996;4.754;2022-08-19T11:03:24;27.90;98.50
8862;DHT22;4799;50.996;4.754;2022-08-19T11:06:07;27.80;98.30
8862;DHT22;4799;50.996;4.754;2022-08-19T11:08:34;27.80;98.00
8862;DHT22;4799;50.996;4.754;2022-08-19T11:11:02;27.90;98.40
8862;DHT22;4799;50.996;4.754;2022-08-19T11:13:30;28.00;97.90
8862;DHT22;4799;50.996;4.754;2022-08-19T11:16:06;28.20;97.80
8862;DHT22;4799;50.996;4.754;2022-08-19T11:18:35;28.30;97.40
8862;DHT22;4799;50.996;4.754;2022-08-19T11:21:32;28.50;96.50
8862;DHT22;4799;50.996;4.754;2022-08-19T11:24:04;28.70;95.70
8862;DHT22;4799;50.996;4.754;2022-08-19T11:26:32;28.90;96.10
8862;DHT22;4799;50.996;4.754;2022-08-19T11:28:59;29.00;95.40
8862;DHT22;4799;50.996;4.754;2022-08-19T11:31:28;29.00;94.60
8862;DHT22;4799;50.996;4.754;2022-08-19T11:33:57;29.00;94.50
8862;DHT22;4799;50.996;4.754;2022-08-19T11:36:23;29.00;94.10
8862;DHT22;4799;50.996;4.754;2022-08-19T11:38:49;28.90;93.60
8862;DHT22;4799;50.996;4.754;2022-08-19T11:41:17;28.70;93.20
8862;DHT22;4799;50.996;4.754;2022-08-19T11:43:44;28.50;93.60
8862;DHT22;4799;50.996;4.754;2022-08-19T11:46:13;28.40;93.80
8862;DHT22;4799;50.996;4.754;2022-08-19T11:48:40;28.50;94.40
8862;DHT22;4799;50.996;4.754;2022-08-19T11:51:13;28.50;94.00
8862;DHT22;4799;50.996;4.754;2022-08-19T11:53:39;28.40;94.20
8862;DHT22;4799;50.996;4.754;2022-08-19T11:56:06;28.30;94.60
8862;DHT22;4799;50.996;4.754;2022-08-19T11:58:33;28.20;94.30
8862;DHT22;4799;50.996;4.754;2022-08-19T12:00:59;28.00;94.80
8862;DHT22;4799;50.996;4.754;2022-08-19T12:03:25;27.90;95.50
8862;DHT22;4799;50.996;4.754;2022-08-19T12:05:51;27.70;95.90
8862;DHT22;4799;50.996;4.754;2022-08-19T12:08:18;27.60;96.30
8862;DHT22;4799;50.996;4.754;2022-08-19T12:10:44;27.60;96.60
8862;DHT22;4799;50.996;4.754;2022-08-19T12:13:11;27.60;97.00
8862;DHT22;4799;50.996;4.754;2022-08-19T12:15:40;27.70;97.00
8862;DHT22;4799;50.996;4.754;2022-08-19T12:18:08;27.80;96.80
8862;DHT22;4799;50.996;4.754;2022-08-19T12:20:38;27.90;96.50
8862;DHT22;4799;50.996;4.754;2022-08-19T12:23:06;28.00;96.10
8862;DHT22;4799;50.996;4.754;2022-08-19T12:25:33;28.10;96.10
8862;DHT22;4799;50.996;4.754;2022-08-19T12:28:00;28.20;96.00
8862;DHT22;4799;50.996;4.754;2022-08-19T12:30:27;28.40;95.80
8862;DHT22;4799;50.996;4.754;2022-08-19T12:32:53;28.60;95.50
8862;DHT22;4799;50.996;4.754;2022-08-19T12:35:19;28.70;95.10
8862;DHT22;4799;50.996;4.754;2022-08-19T12:37:47;28.80;94.90
8862;DHT22;4799;50.996;4.754;2022-08-19T12:40:15;28.90;94.10
8862;DHT22;4799;50.996;4.754;2022-08-19T12:42:42;29.00;93.90
8862;DHT22;4799;50.996;4.754;2022-08-19T12:45:10;29.30;93.60
8862;DHT22;4799;50.996;4.754;2022-08-19T12:47:37;29.50;93.20
8862;DHT22;4799;50.996;4.754;2022-08-19T12:50:03;29.50;92.50
8862;DHT22;4799;50.996;4.754;2022-08-19T12:52:30;29.70;92.50
8862;DHT22;4799;50.996;4.754;2022-08-19T12:54:56;29.90;92.20
8862;DHT22;4799;50.996;4.754;2022-08-19T12:57:27;30.00;91.80
8862;DHT22;4799;50.996;4.754;2022-08-19T12:59:53;30.00;91.50
8862;DHT22;4799;50.996;4.754;2022-08-19T13:02:19;30.00;91.40
8862;DHT22;4799;50.996;4.754;2022-08-19T13:04:45;30.00;91.10
8862;DHT22;4799;50.996;4.754;2022-08-19T13:07:11;30.10;90.90
8862;DHT22;4799;50.996;4.754;2022-08-19T13:09:37;30.10;90.60
8862;DHT22;4799;50.996;4.754;2022-08-19T13:12:05;30.30;90.60
8862;DHT22;4799;50.996;4.754;2022-08-19T13:14:36;30.50;90.30
8862;DHT22;4799;50.996;4.754;2022-08-19T13:17:01;30.50;89.40
8862;DHT22;4799;50.996;4.754;2022-08-19T13:19:27;30.70;88.70
8862;DHT22;4799;50.996;4.754;2022-08-19T13:21:53;30.70;87.90
8862;DHT22;4799;50.996;4.754;2022-08-19T13:24:21;30.80;86.40
8862;DHT22;4799;50.996;4.754;2022-08-19T13:26:46;30.80;85.80
8862;DHT22;4799;50.996;4.754;2022-08-19T13:29:13;30.70;86.10
8862;DHT22;4799;50.996;4.754;2022-08-19T13:31:58;30.60;85.70
8862;DHT22;4799;50.996;4.754;2022-08-19T13:34:42;30.40;86.50
8862;DHT22;4799;50.996;4.754;2022-08-19T13:37:08;30.40;86.70
8862;DHT22;4799;50.996;4.754;2022-08-19T13:39:35;30.30;86.10
8862;DHT22;4799;50.996;4.754;2022-08-19T13:42:02;30.30;86.10
8862;DHT22;4799;50.996;4.754;2022-08-19T13:44:29;30.30;86.80
8862;DHT22;4799;50.996;4.754;2022-08-19T13:47:05;30.30;86.60
8862;DHT22;4799;50.996;4.754;2022-08-19T13:49:33;30.30;86.10
8862;DHT22;4799;50.996;4.754;2022-08-19T13:51:59;30.30;85.60
8862;DHT22;4799;50.996;4.754;2022-08-19T13:54:24;30.30;85.60
8862;DHT22;4799;50.996;4.754;2022-08-19T13:56:52;30.30;85.70
8862;DHT22;4799;50.996;4.754;2022-08-19T13:59:18;30.40;85.70
8862;DHT22;4799;50.996;4.754;2022-08-19T14:01:44;30.40;85.60
8862;DHT22;4799;50.996;4.754;2022-08-19T14:04:10;30.40;85.50
8862;DHT22;4799;50.996;4.754;2022-08-19T14:06:36;30.40;85.00
8862;DHT22;4799;50.996;4.754;2022-08-19T14:09:02;30.60;84.50
8862;DHT22;4799;50.996;4.754;2022-08-19T14:11:29;30.80;84.70
8862;DHT22;4799;50.996;4.754;2022-08-19T14:13:55;30.80;83.90
8862;DHT22;4799;50.996;4.754;2022-08-19T14:16:21;30.80;82.30
8862;DHT22;4799;50.996;4.754;2022-08-19T14:18:47;30.70;82.30
8862;DHT22;4799;50.996;4.754;2022-08-19T14:21:19;30.50;82.70
8862;DHT22;4799;50.996;4.754;2022-08-19T14:23:46;30.60;83.10
8862;DHT22;4799;50.996;4.754;2022-08-19T14:26:15;30.50;83.50
8862;DHT22;4799;50.996;4.754;2022-08-19T14:28:42;30.40;83.30
8862;DHT22;4799;50.996;4.754;2022-08-19T14:31:11;30.30;82.60
8862;DHT22;4799;50.996;4.754;2022-08-19T14:33:38;30.30;82.20
8862;DHT22;4799;50.996;4.754;2022-08-19T14:36:06;30.30;82.10
8862;DHT22;4799;50.996;4.754;2022-08-19T14:38:31;30.20;81.10
8862;DHT22;4799;50.996;4.754;2022-08-19T14:41:27;29.90;81.20
8862;DHT22;4799;50.996;4.754;2022-08-19T14:43:54;29.70;82.80
8862;DHT22;4799;50.996;4.754;2022-08-19T14:46:25;29.60;85.10
8862;DHT22;4799;50.996;4.754;2022-08-19T14:48:53;29.50;85.80
8862;DHT22;4799;50.996;4.754;2022-08-19T14:51:21;29.40;86.80
8862;DHT22;4799;50.996;4.754;2022-08-19T14:53:47;29.40;87.40
8862;DHT22;4799;50.996;4.754;2022-08-19T14:56:19;29.50;87.90
8862;DHT22;4799;50.996;4.754;2022-08-19T14:58:46;29.50;86.70
8862;DHT22;4799;50.996;4.754;2022-08-19T15:01:13;29.60;86.80
8862;DHT22;4799;50.996;4.754;2022-08-19T15:03:39;29.70;86.40
8862;DHT22;4799;50.996;4.754;2022-08-19T15:06:07;29.80;85.80
8862;DHT22;4799;50.996;4.754;2022-08-19T15:08:34;29.80;85.70
8862;DHT22;4799;50.996;4.754;2022-08-19T15:11:02;29.60;86.30
8862;DHT22;4799;50.996;4.754;2022-08-19T15:13:32;29.60;87.80
8862;DHT22;4799;50.996;4.754;2022-08-19T15:15:58;29.40;90.10
8862;DHT22;4799;50.996;4.754;2022-08-19T15:18:24;29.40;90.50
8862;DHT22;4799;50.996;4.754;2022-08-19T15:20:50;29.30;90.70
8862;DHT22;4799;50.996;4.754;2022-08-19T15:23:17;29.20;91.00
8862;DHT22;4799;50.996;4.754;2022-08-19T15:25:43;29.20;91.30
8862;DHT22;4799;50.996;4.754;2022-08-19T15:28:09;29.20;91.50
8862;DHT22;4799;50.996;4.754;2022-08-19T15:30:39;29.00;92.10
8862;DHT22;4799;50.996;4.754;2022-08-19T15:33:06;28.90;92.40
8862;DHT22;4799;50.996;4.754;2022-08-19T15:35:31;28.70;92.90
8862;DHT22;4799;50.996;4.754;2022-08-19T15:37:57;28.50;93.70
8862;DHT22;4799;50.996;4.754;2022-08-19T15:40:25;28.30;94.00
8862;DHT22;4799;50.996;4.754;2022-08-19T15:42:51;28.20;94.40
8862;DHT22;4799;50.996;4.754;2022-08-19T15:45:19;27.90;96.00
8862;DHT22;4799;50.996;4.754;2022-08-19T15:47:46;27.60;97.10
8862;DHT22;4799;50.996;4.754;2022-08-19T15:50:17;27.50;98.10
8862;DHT22;4799;50.996;4.754;2022-08-19T15:52:47;27.60;98.80
8862;DHT22;4799;50.996;4.754;2022-08-19T15:55:13;27.80;98.70
8862;DHT22;4799;50.996;4.754;2022-08-19T15:57:39;27.90;98.40
8862;DHT22;4799;50.996;4.754;2022-08-19T16:00:23;27.90;97.90
8862;DHT22;4799;50.996;4.754;2022-08-19T16:03:12;27.90;97.90
8862;DHT22;4799;50.996;4.754;2022-08-19T16:05:58;27.90;97.90
8862;DHT22;4799;50.996;4.754;2022-08-19T16:08:42;27.90;97.90
8862;DHT22;4799;50.996;4.754;2022-08-19T16:11:11;28.00;97.40
8862;DHT22;4799;50.996;4.754;2022-08-19T16:13:37;28.00;97.40
8862;DHT22;4799;50.996;4.754;2022-08-19T16:16:04;27.90;97.30
8862;DHT22;4799;50.996;4.754;2022-08-19T16:18:30;27.70;97.50
8862;DHT22;4799;50.996;4.754;2022-08-19T16:20:57;27.60;97.70
8862;DHT22;4799;50.996;4.754;2022-08-19T16:23:23;27.40;98.10
8862;DHT22;4799;50.996;4.754;2022-08-19T16:25:49;27.30;98.50